sensor_id;sensor_type;location;lat;lon;timestamp;temperature;humidity
57857;DHT22;43683;48.650;9.290;2022-11-09T00:01:15;8.50;91.20
57857;DHT22;43683;48.650;9.290;2022-11-09T00:03:41;8.50;91.10
57857;DHT22;43683;48.650;9.290;2022-11-09T00:06:06;8.50;91.10
57857;DHT22;43683;48.650;9.290;2022-11-09T00:08:32;8.50;91.10
57857;DHT22;43683;48.650;9.290;2022-11-09T00:11:08;8.50;91.10
57857;DHT22;43683;48.650;9.290;2022-11-09T00:13:36;8.50;91.20
57857;DHT22;43683;48.650;9.290;2022-11-09T00:16:02;8.50;91.20
57857;DHT22;43683;48.650;9.290;2022-11-09T00:18:28;8.50;91.20
57857;DHT22;43683;48.650;9.290;2022-11-09T00:20:54;8.40;91.20
57857;DHT22;43683;48.650;9.290;2022-11-09T00:23:19;8.40;91.20
57857;DHT22;43683;48.650;9.290;2022-11-09T00:25:45;8.40;91.30
57857;DHT22;43683;48.650;9.290;2022-11-09T00:28:12;8.40;91.30
57857;DHT22;43683;48.650;9.290;2022-11-09T00:30:37;8.40;91.30
57857;DHT22;43683;48.650;9.290;2022-11-09T00:33:03;8.40;91.30
57857;DHT22;43683;48.650;9.290;2022-11-09T00:35:29;8.40;91.30
57857;DHT22;43683;48.650;9.290;2022-11-09T00:37:54;8.40;91.30
57857;DHT22;43683;48.650;9.290;2022-11-09T00:40:20;8.40;91.30
57857;DHT22;43683;48.650;9.290;2022-11-09T00:42:45;8.40;91.30
57857;DHT22;43683;48.650;9.290;2022-11-09T00:45:11;8.40;91.30
57857;DHT22;43683;48.650;9.290;2022-11-09T00:47:36;8.30;91.30
57857;DHT22;43683;48.650;9.290;2022-11-09T00:50:03;8.30;91.30
57857;DHT22;43683;48.650;9.290;2022-11-09T00:52:28;8.30;91.30
57857;DHT22;43683;48.650;9.290;2022-11-09T00:54:54;8.40;91.40
57857;DHT22;43683;48.650;9.290;2022-11-09T00:57:19;8.40;91.40
57857;DHT22;43683;48.650;9.290;2022-11-09T00:59:45;8.40;91.40
57857;DHT22;43683;48.650;9.290;2022-11-09T01:02:10;8.40;91.30
57857;DHT22;43683;48.650;9.290;2022-11-09T01:04:36;8.40;91.30
57857;DHT22;43683;48.650;9.290;2022-11-09T01:07:02;8.50;91.30
57857;DHT22;43683;48.650;9.290;2022-11-09T01:09:27;8.50;91.30
57857;DHT22;43683;48.650;9.290;2022-11-09T01:11:53;8.50;91.30
57857;DHT22;43683;48.650;9.290;2022-11-09T01:14:19;8.50;91.30
57857;DHT22;43683;48.650;9.290;2022-11-09T01:16:44;8.50;91.30
57857;DHT22;43683;48.650;9.290;2022-11-09T01:19:10;8.50;91.30
57857;DHT22;43683;48.650;9.290;2022-11-09T01:21:36;8.50;91.30
57857;DHT22;43683;48.650;9.290;2022-11-09T01:24:01;8.50;91.30
57857;DHT22;43683;48.650;9.290;2022-11-09T01:26:28;8.50;91.30
57857;DHT22;43683;48.650;9.290;2022-11-09T01:28:53;8.50;91.30
57857;DHT22;43683;48.650;9.290;2022-11-09T01:31:20;8.50;91.40
57857;DHT22;43683;48.650;9.290;2022-11-09T01:33:45;8.60;91.40
57857;DHT22;43683;48.650;9.290;2022-11-09T01:36:15;8.60;91.40
57857;DHT22;43683;48.650;9.290;2022-11-09T01:38:41;8.60;91.30
57857;DHT22;43683;48.650;9.290;2022-11-09T01:41:08;8.60;91.30
57857;DHT22;43683;48.650;9.290;2022-11-09T01:43:35;8.60;91.30
57857;DHT22;43683;48.650;9.290;2022-11-09T01:46:03;8.70;91.30
57857;DHT22;43683;48.650;9.290;2022-11-09T01:48:46;8.70;91.20
57857;DHT22;43683;48.650;9.290;2022-11-09T01:51:18;8.70;91.20
57857;DHT22;43683;48.650;9.290;2022-11-09T01:53:50;8.80;91.20
57857;DHT22;43683;48.650;9.290;2022-11-09T01:56:17;8.70;91.20
57857;DHT22;43683;48.650;9.290;2022-11-09T01:58:51;8.70;91.10
57857;DHT22;43683;48.650;9.290;2022-11-09T02:01:17;8.70;91.20
57857;DHT22;43683;48.650;9.290;2022-11-09T02:03:51;8.70;91.20
57857;DHT22;43683;48.650;9.290;2022-11-09T02:06:19;8.70;91.30
57857;DHT22;43683;48.650;9.290;2022-11-09T02:08:46;8.80;91.30
57857;DHT22;43683;48.650;9.290;2022-11-09T02:11:16;8.90;91.20
57857;DHT22;43683;48.650;9.290;2022-11-09T02:13:50;8.90;91.00
57857;DHT22;43683;48.650;9.290;2022-11-09T02:16:17;9.00;90.90
57857;DHT22;43683;48.650;9.290;2022-11-09T02:18:52;9.20;90.80
57857;DHT22;43683;48.650;9.290;2022-11-09T02:21:19;9.20;90.70
57857;DHT22;43683;48.650;9.290;2022-11-09T02:23:45;9.30;90.60
57857;DHT22;43683;48.650;9.290;2022-11-09T02:26:23;9.30;90.60
57857;DHT22;43683;48.650;9.290;2022-11-09T02:28:51;9.30;90.60
57857;DHT22;43683;48.650;9.290;2022-11-09T02:31:18;9.40;90.60
57857;DHT22;43683;48.650;9.290;2022-11-09T02:33:52;9.40;90.90
57857;DHT22;43683;48.650;9.290;2022-11-09T02:36:19;9.50;90.60
57857;DHT22;43683;48.650;9.290;2022-11-09T02:38:45;9.50;90.50
57857;DHT22;43683;48.650;9.290;2022-11-09T02:41:11;9.50;90.50
57857;DHT22;43683;48.650;9.290;2022-11-09T02:43:37;9.60;90.50
57857;DHT22;43683;48.650;9.290;2022-11-09T02:46:03;9.60;90.50
57857;DHT22;43683;48.650;9.290;2022-11-09T02:48:29;9.60;90.50
57857;DHT22;43683;48.650;9.290;2022-11-09T02:50:55;9.60;90.50
57857;DHT22;43683;48.650;9.290;2022-11-09T02:53:20;9.60;90.50
57857;DHT22;43683;48.650;9.290;2022-11-09T02:55:46;9.60;90.50
57857;DHT22;43683;48.650;9.290;2022-11-09T02:58:11;9.70;90.50
57857;DHT22;43683;48.650;9.290;2022-11-09T03:00:37;9.60;90.50
57857;DHT22;43683;48.650;9.290;2022-11-09T03:03:03;9.70;90.50
57857;DHT22;43683;48.650;9.290;2022-11-09T03:05:28;9.70;90.50
57857;DHT22;43683;48.650;9.290;2022-11-09T03:07:54;9.70;90.50
57857;DHT22;43683;48.650;9.290;2022-11-09T03:10:20;9.70;90.50
57857;DHT22;43683;48.650;9.290;2022-11-09T03:12:46;9.70;90.50
57857;DHT22;43683;48.650;9.290;2022-11-09T03:15:12;9.70;90.50
57857;DHT22;43683;48.650;9.290;2022-11-09T03:17:37;9.80;90.60
57857;DHT22;43683;48.650;9.290;2022-11-09T03:20:03;9.80;90.60
57857;DHT22;43683;48.650;9.290;2022-11-09T03:22:29;9.80;90.50
57857;DHT22;43683;48.650;9.290;2022-11-09T03:24:54;9.90;90.50
57857;DHT22;43683;48.650;9.290;2022-11-09T03:27:20;9.90;90.50
57857;DHT22;43683;48.650;9.290;2022-11-09T03:29:45;9.90;90.50
57857;DHT22;43683;48.650;9.290;2022-11-09T03:32:11;9.90;90.50
57857;DHT22;43683;48.650;9.290;2022-11-09T03:34:36;10.00;90.50
57857;DHT22;43683;48.650;9.290;2022-11-09T03:37:02;10.00;90.40
57857;DHT22;43683;48.650;9.290;2022-11-09T03:39:27;10.10;90.30
57857;DHT22;43683;48.650;9.290;2022-11-09T03:41:53;10.20;90.20
57857;DHT22;43683;48.650;9.290;2022-11-09T03:44:18;10.20;90.20
57857;DHT22;43683;48.650;9.290;2022-11-09T03:46:45;10.10;90.20
57857;DHT22;43683;48.650;9.290;2022-11-09T03:49:10;10.00;90.50
57857;DHT22;43683;48.650;9.290;2022-11-09T03:51:36;9.80;90.80
57857;DHT22;43683;48.650;9.290;2022-11-09T03:54:01;9.70;91.00
57857;DHT22;43683;48.650;9.290;2022-11-09T03:56:27;9.70;91.20
57857;DHT22;43683;48.650;9.290;2022-11-09T03:58:52;9.60;91.20
57857;DHT22;43683;48.650;9.290;2022-11-09T04:01:18;9.60;91.60
57857;DHT22;43683;48.650;9.290;2022-11-09T04:03:44;9.60;91.40
57857;DHT22;43683;48.650;9.290;2022-11-09T04:06:09;9.50;91.40
57857;DHT22;43683;48.650;9.290;2022-11-09T04:08:35;9.60;91.40
57857;DHT22;43683;48.650;9.290;2022-11-09T04:11:00;9.60;91.40
57857;DHT22;43683;48.650;9.290;2022-11-09T04:13:26;9.60;91.50
57857;DHT22;43683;48.650;9.290;2022-11-09T04:15:51;9.60;91.40
57857;DHT22;43683;48.650;9.290;2022-11-09T04:18:17;9.60;91.50
57857;DHT22;43683;48.650;9.290;2022-11-09T04:20:42;9.60;91.50
57857;DHT22;43683;48.650;9.290;2022-11-09T04:23:11;9.60;91.50
57857;DHT22;43683;48.650;9.290;2022-11-09T04:25:38;9.50;91.60
57857;DHT22;43683;48.650;9.290;2022-11-09T04:28:05;9.50;91.70
57857;DHT22;43683;48.650;9.290;2022-11-09T04:30:32;9.50;91.70
57857;DHT22;43683;48.650;9.290;2022-11-09T04:32:59;9.40;91.70
57857;DHT22;43683;48.650;9.290;2022-11-09T04:35:26;9.50;91.70
57857;DHT22;43683;48.650;9.290;2022-11-09T04:37:58;9.50;91.70
57857;DHT22;43683;48.650;9.290;2022-11-09T04:40:26;9.50;91.70
57857;DHT22;43683;48.650;9.290;2022-11-09T04:42:52;9.50;91.80
57857;DHT22;43683;48.650;9.290;2022-11-09T04:45:18;9.50;91.70
57857;DHT22;43683;48.650;9.290;2022-11-09T04:47:44;9.40;91.70
57857;DHT22;43683;48.650;9.290;2022-11-09T04:50:09;9.40;91.70
57857;DHT22;43683;48.650;9.290;2022-11-09T04:52:35;9.30;91.80
57857;DHT22;43683;48.650;9.290;2022-11-09T04:55:00;9.30;92.20
57857;DHT22;43683;48.650;9.290;2022-11-09T04:57:26;9.30;91.90
57857;DHT22;43683;48.650;9.290;2022-11-09T04:59:52;9.20;92.00
57857;DHT22;43683;48.650;9.290;2022-11-09T05:02:17;9.20;92.00
57857;DHT22;43683;48.650;9.290;2022-11-09T05:04:43;9.20;92.10
57857;DHT22;43683;48.650;9.290;2022-11-09T05:07:08;9.20;92.10
57857;DHT22;43683;48.650;9.290;2022-11-09T05:09:34;9.20;92.10
57857;DHT22;43683;48.650;9.290;2022-11-09T05:11:59;9.20;92.20
57857;DHT22;43683;48.650;9.290;2022-11-09T05:14:25;9.30;92.20
57857;DHT22;43683;48.650;9.290;2022-11-09T05:16:50;9.30;92.20
57857;DHT22;43683;48.650;9.290;2022-11-09T05:19:16;9.30;92.20
57857;DHT22;43683;48.650;9.290;2022-11-09T05:21:41;9.20;92.20
57857;DHT22;43683;48.650;9.290;2022-11-09T05:24:07;9.30;92.30
57857;DHT22;43683;48.650;9.290;2022-11-09T05:26:38;9.30;92.30
57857;DHT22;43683;48.650;9.290;2022-11-09T05:29:06;9.20;92.40
57857;DHT22;43683;48.650;9.290;2022-11-09T05:31:32;9.30;92.40
57857;DHT22;43683;48.650;9.290;2022-11-09T05:33:58;9.30;92.40
57857;DHT22;43683;48.650;9.290;2022-11-09T05:36:25;9.40;92.40
57857;DHT22;43683;48.650;9.290;2022-11-09T05:38:52;9.40;92.40
57857;DHT22;43683;48.650;9.290;2022-11-09T05:41:17;9.40;92.40
57857;DHT22;43683;48.650;9.290;2022-11-09T05:43:43;9.40;92.50
57857;DHT22;43683;48.650;9.290;2022-11-09T05:46:10;9.40;92.50
57857;DHT22;43683;48.650;9.290;2022-11-09T05:48:35;9.40;92.50
57857;DHT22;43683;48.650;9.290;2022-11-09T05:51:05;9.50;92.50
57857;DHT22;43683;48.650;9.290;2022-11-09T05:53:31;9.50;92.60
57857;DHT22;43683;48.650;9.290;2022-11-09T05:56:01;9.50;92.60
57857;DHT22;43683;48.650;9.290;2022-11-09T05:58:27;9.50;92.70
57857;DHT22;43683;48.650;9.290;2022-11-09T06:00:53;9.50;92.70
57857;DHT22;43683;48.650;9.290;2022-11-09T06:03:19;9.50;92.70
57857;DHT22;43683;48.650;9.290;2022-11-09T06:05:44;9.50;92.70
57857;DHT22;43683;48.650;9.290;2022-11-09T06:08:12;9.50;92.80
57857;DHT22;43683;48.650;9.290;2022-11-09T06:10:39;9.50;92.80
57857;DHT22;43683;48.650;9.290;2022-11-09T06:13:05;9.50;92.80
57857;DHT22;43683;48.650;9.290;2022-11-09T06:15:30;9.50;92.90
57857;DHT22;43683;48.650;9.290;2022-11-09T06:17:56;9.50;92.90
57857;DHT22;43683;48.650;9.290;2022-11-09T06:20:23;9.50;92.90
57857;DHT22;43683;48.650;9.290;2022-11-09T06:22:53;9.50;93.00
57857;DHT22;43683;48.650;9.290;2022-11-09T06:25:19;9.50;93.00
57857;DHT22;43683;48.650;9.290;2022-11-09T06:27:44;9.50;93.00
57857;DHT22;43683;48.650;9.290;2022-11-09T06:30:10;9.50;93.00
57857;DHT22;43683;48.650;9.290;2022-11-09T06:32:36;9.50;93.00
57857;DHT22;43683;48.650;9.290;2022-11-09T06:35:01;9.50;93.10
57857;DHT22;43683;48.650;9.290;2022-11-09T06:37:27;9.50;93.10
57857;DHT22;43683;48.650;9.290;2022-11-09T06:39:52;9.50;93.30
57857;DHT22;43683;48.650;9.290;2022-11-09T06:42:18;9.50;93.00
57857;DHT22;43683;48.650;9.290;2022-11-09T06:44:43;9.60;93.10
57857;DHT22;43683;48.650;9.290;2022-11-09T06:47:09;9.60;93.10
57857;DHT22;43683;48.650;9.290;2022-11-09T06:49:34;9.60;93.10
57857;DHT22;43683;48.650;9.290;2022-11-09T06:52:00;9.60;93.10
57857;DHT22;43683;48.650;9.290;2022-11-09T06:54:25;9.60;93.10
57857;DHT22;43683;48.650;9.290;2022-11-09T06:56:53;9.70;93.00
57857;DHT22;43683;48.650;9.290;2022-11-09T06:59:19;9.70;93.00
57857;DHT22;43683;48.650;9.290;2022-11-09T07:01:45;9.80;93.00
57857;DHT22;43683;48.650;9.290;2022-11-09T07:04:12;9.70;93.00
57857;DHT22;43683;48.650;9.290;2022-11-09T07:06:39;9.80;93.00
57857;DHT22;43683;48.650;9.290;2022-11-09T07:09:05;9.80;93.00
57857;DHT22;43683;48.650;9.290;2022-11-09T07:11:31;9.80;93.00
57857;DHT22;43683;48.650;9.290;2022-11-09T07:13:57;9.90;93.00
57857;DHT22;43683;48.650;9.290;2022-11-09T07:16:22;9.90;93.00
57857;DHT22;43683;48.650;9.290;2022-11-09T07:18:48;10.00;93.00
57857;DHT22;43683;48.650;9.290;2022-11-09T07:21:13;9.90;92.90
57857;DHT22;43683;48.650;9.290;2022-11-09T07:23:39;10.00;92.90
57857;DHT22;43683;48.650;9.290;2022-11-09T07:26:05;10.00;92.90
57857;DHT22;43683;48.650;9.290;2022-11-09T07:28:30;10.10;92.90
57857;DHT22;43683;48.650;9.290;2022-11-09T07:30:57;10.10;92.90
57857;DHT22;43683;48.650;9.290;2022-11-09T07:33:23;10.10;92.90
57857;DHT22;43683;48.650;9.290;2022-11-09T07:35:49;10.10;92.90
57857;DHT22;43683;48.650;9.290;2022-11-09T07:38:15;10.20;92.90
57857;DHT22;43683;48.650;9.290;2022-11-09T07:40:41;10.30;92.90
57857;DHT22;43683;48.650;9.290;2022-11-09T07:43:09;10.30;92.90
57857;DHT22;43683;48.650;9.290;2022-11-09T07:45:35;10.30;92.90
57857;DHT22;43683;48.650;9.290;2022-11-09T07:48:03;10.30;92.90
57857;DHT22;43683;48.650;9.290;2022-11-09T07:50:30;10.30;93.00
57857;DHT22;43683;48.650;9.290;2022-11-09T07:52:58;10.40;92.90
57857;DHT22;43683;48.650;9.290;2022-11-09T07:55:24;10.60;92.80
57857;DHT22;43683;48.650;9.290;2022-11-09T07:58:02;10.70;92.70
57857;DHT22;43683;48.650;9.290;2022-11-09T08:00:29;10.80;92.80
57857;DHT22;43683;48.650;9.290;2022-11-09T08:02:55;10.90;92.70
57857;DHT22;43683;48.650;9.290;2022-11-09T08:05:21;10.90;92.70
57857;DHT22;43683;48.650;9.290;2022-11-09T08:07:46;10.90;92.70
57857;DHT22;43683;48.650;9.290;2022-11-09T08:10:13;11.00;92.80
57857;DHT22;43683;48.650;9.290;2022-11-09T08:12:38;11.00;92.80
57857;DHT22;43683;48.650;9.290;2022-11-09T08:15:05;11.10;92.80
57857;DHT22;43683;48.650;9.290;2022-11-09T08:17:31;11.10;92.80
57857;DHT22;43683;48.650;9.290;2022-11-09T08:19:56;11.20;92.90
57857;DHT22;43683;48.650;9.290;2022-11-09T08:22:22;11.20;92.90
57857;DHT22;43683;48.650;9.290;2022-11-09T08:24:47;11.20;92.90
57857;DHT22;43683;48.650;9.290;2022-11-09T08:27:13;11.30;92.80
57857;DHT22;43683;48.650;9.290;2022-11-09T08:29:39;11.40;92.90
57857;DHT22;43683;48.650;9.290;2022-11-09T08:32:04;11.40;92.90
57857;DHT22;43683;48.650;9.290;2022-11-09T08:34:30;11.40;93.00
57857;DHT22;43683;48.650;9.290;2022-11-09T08:36:59;11.50;93.00
57857;DHT22;43683;48.650;9.290;2022-11-09T08:39:24;11.50;93.00
57857;DHT22;43683;48.650;9.290;2022-11-09T08:41:50;11.50;93.00
57857;DHT22;43683;48.650;9.290;2022-11-09T08:44:15;11.50;93.10
57857;DHT22;43683;48.650;9.290;2022-11-09T08:46:41;11.50;93.10
57857;DHT22;43683;48.650;9.290;2022-11-09T08:49:07;11.50;93.20
57857;DHT22;43683;48.650;9.290;2022-11-09T08:51:32;11.60;93.10
57857;DHT22;43683;48.650;9.290;2022-11-09T08:53:58;11.60;93.00
57857;DHT22;43683;48.650;9.290;2022-11-09T08:56:23;11.70;93.00
57857;DHT22;43683;48.650;9.290;2022-11-09T08:58:49;11.70;93.00
57857;DHT22;43683;48.650;9.290;2022-11-09T09:01:15;11.60;93.00
57857;DHT22;43683;48.650;9.290;2022-11-09T09:03:41;11.60;93.10
57857;DHT22;43683;48.650;9.290;2022-11-09T09:06:07;11.60;93.10
57857;DHT22;43683;48.650;9.290;2022-11-09T09:08:33;11.60;93.10
57857;DHT22;43683;48.650;9.290;2022-11-09T09:11:05;11.60;93.10
57857;DHT22;43683;48.650;9.290;2022-11-09T09:13:31;11.60;93.10
57857;DHT22;43683;48.650;9.290;2022-11-09T09:15:57;11.60;93.20
57857;DHT22;43683;48.650;9.290;2022-11-09T09:18:32;11.50;93.10
57857;DHT22;43683;48.650;9.290;2022-11-09T09:20:58;11.50;93.20
57857;DHT22;43683;48.650;9.290;2022-11-09T09:23:23;11.50;93.20
57857;DHT22;43683;48.650;9.290;2022-11-09T09:25:49;11.50;93.20
57857;DHT22;43683;48.650;9.290;2022-11-09T09:28:14;11.60;93.10
57857;DHT22;43683;48.650;9.290;2022-11-09T09:30:41;11.60;93.10
57857;DHT22;43683;48.650;9.290;2022-11-09T09:33:06;11.50;93.10
57857;DHT22;43683;48.650;9.290;2022-11-09T09:35:32;11.60;93.10
57857;DHT22;43683;48.650;9.290;2022-11-09T09:37:57;11.70;93.00
57857;DHT22;43683;48.650;9.290;2022-11-09T09:40:30;11.80;92.90
57857;DHT22;43683;48.650;9.290;2022-11-09T09:42:57;11.80;92.90
57857;DHT22;43683;48.650;9.290;2022-11-09T09:45:27;12.00;92.80
57857;DHT22;43683;48.650;9.290;2022-11-09T09:50:49;12.30;92.50
57857;DHT22;43683;48.650;9.290;2022-11-09T09:53:36;12.60;92.30
57857;DHT22;43683;48.650;9.290;2022-11-09T09:56:21;12.80;92.00
57857;DHT22;43683;48.650;9.290;2022-11-09T09:59:13;12.90;91.80
57857;DHT22;43683;48.650;9.290;2022-11-09T10:01:41;13.10;91.70
57857;DHT22;43683;48.650;9.290;2022-11-09T10:04:19;13.30;91.60
57857;DHT22;43683;48.650;9.290;2022-11-09T10:09:35;13.80;91.30
57857;DHT22;43683;48.650;9.290;2022-11-09T10:25:53;15.40;90.00
57857;DHT22;43683;48.650;9.290;2022-11-09T10:28:22;15.40;90.00
57857;DHT22;43683;48.650;9.290;2022-11-09T10:30:50;15.60;90.00
57857;DHT22;43683;48.650;9.290;2022-11-09T10:33:18;15.60;89.80
57857;DHT22;43683;48.650;9.290;2022-11-09T10:35:54;15.80;89.50
57857;DHT22;43683;48.650;9.290;2022-11-09T10:38:28;15.90;89.10
57857;DHT22;43683;48.650;9.290;2022-11-09T10:41:15;16.10;88.90
57857;DHT22;43683;48.650;9.290;2022-11-09T10:43:44;16.20;88.60
57857;DHT22;43683;48.650;9.290;2022-11-09T10:46:09;16.30;88.30
57857;DHT22;43683;48.650;9.290;2022-11-09T10:48:37;16.30;88.20
57857;DHT22;43683;48.650;9.290;2022-11-09T10:51:02;16.40;88.10
57857;DHT22;43683;48.650;9.290;2022-11-09T10:53:30;16.50;88.00
57857;DHT22;43683;48.650;9.290;2022-11-09T10:56:15;16.50;88.10
57857;DHT22;43683;48.650;9.290;2022-11-09T10:58:47;16.40;88.10
57857;DHT22;43683;48.650;9.290;2022-11-09T11:03:41;16.40;88.10
57857;DHT22;43683;48.650;9.290;2022-11-09T11:08:48;16.50;87.20
57857;DHT22;43683;48.650;9.290;2022-11-09T11:13:42;16.40;87.30
57857;DHT22;43683;48.650;9.290;2022-11-09T11:16:32;16.30;87.40
57857;DHT22;43683;48.650;9.290;2022-11-09T11:18:58;16.20;87.70
57857;DHT22;43683;48.650;9.290;2022-11-09T11:21:25;16.10;88.00
57857;DHT22;43683;48.650;9.290;2022-11-09T11:24:10;16.00;88.30
57857;DHT22;43683;48.650;9.290;2022-11-09T11:27:02;15.90;88.40
57857;DHT22;43683;48.650;9.290;2022-11-09T11:32:15;15.50;88.80
57857;DHT22;43683;48.650;9.290;2022-11-09T11:34:41;15.40;89.00
57857;DHT22;43683;48.650;9.290;2022-11-09T11:37:23;15.30;89.10
57857;DHT22;43683;48.650;9.290;2022-11-09T11:40:00;15.20;89.30
57857;DHT22;43683;48.650;9.290;2022-11-09T11:42:50;15.20;89.50
57857;DHT22;43683;48.650;9.290;2022-11-09T11:48:58;15.20;89.60
57857;DHT22;43683;48.650;9.290;2022-11-09T11:57:17;15.10;89.30
57857;DHT22;43683;48.650;9.290;2022-11-09T12:00:11;15.10;89.30
57857;DHT22;43683;48.650;9.290;2022-11-09T12:06:04;15.10;89.10
57857;DHT22;43683;48.650;9.290;2022-11-09T12:14:31;15.40;88.50
57857;DHT22;43683;48.650;9.290;2022-11-09T12:17:15;15.50;88.20
57857;DHT22;43683;48.650;9.290;2022-11-09T12:19:56;15.60;88.10
57857;DHT22;43683;48.650;9.290;2022-11-09T12:22:47;15.60;87.90
57857;DHT22;43683;48.650;9.290;2022-11-09T12:25:26;15.60;88.00
57857;DHT22;43683;48.650;9.290;2022-11-09T12:28:20;15.60;88.30
57857;DHT22;43683;48.650;9.290;2022-11-09T12:31:08;15.60;88.10
57857;DHT22;43683;48.650;9.290;2022-11-09T12:33:48;15.70;88.10
57857;DHT22;43683;48.650;9.290;2022-11-09T12:36:46;15.70;88.30
57857;DHT22;43683;48.650;9.290;2022-11-09T12:39:31;15.60;88.40
57857;DHT22;43683;48.650;9.290;2022-11-09T12:42:12;15.60;88.70
57857;DHT22;43683;48.650;9.290;2022-11-09T12:45:14;15.60;88.60
57857;DHT22;43683;48.650;9.290;2022-11-09T12:47:43;15.60;88.40
57857;DHT22;43683;48.650;9.290;2022-11-09T12:50:15;15.70;88.50
57857;DHT22;43683;48.650;9.290;2022-11-09T12:52:43;15.80;88.30
57857;DHT22;43683;48.650;9.290;2022-11-09T12:55:18;15.90;87.90
57857;DHT22;43683;48.650;9.290;2022-11-09T12:57:46;15.90;87.60
57857;DHT22;43683;48.650;9.290;2022-11-09T13:03:13;15.90;87.70
57857;DHT22;43683;48.650;9.290;2022-11-09T13:05:40;15.90;87.80
57857;DHT22;43683;48.650;9.290;2022-11-09T13:08:16;15.80;87.90
57857;DHT22;43683;48.650;9.290;2022-11-09T13:10:42;15.70;88.00
57857;DHT22;43683;48.650;9.290;2022-11-09T13:15:37;15.50;88.30
57857;DHT22;43683;48.650;9.290;2022-11-09T13:20:54;15.40;88.20
57857;DHT22;43683;48.650;9.290;2022-11-09T13:23:30;15.30;88.30
57857;DHT22;43683;48.650;9.290;2022-11-09T13:25:56;15.30;88.30
57857;DHT22;43683;48.650;9.290;2022-11-09T13:30:57;15.20;88.00
57857;DHT22;43683;48.650;9.290;2022-11-09T13:33:31;15.20;88.10
57857;DHT22;43683;48.650;9.290;2022-11-09T13:38:32;15.20;88.00
57857;DHT22;43683;48.650;9.290;2022-11-09T13:40:59;15.20;87.90
57857;DHT22;43683;48.650;9.290;2022-11-09T13:43:31;15.10;87.90
57857;DHT22;43683;48.650;9.290;2022-11-09T13:48:47;15.10;87.80
57857;DHT22;43683;48.650;9.290;2022-11-09T13:51:22;15.10;87.80
57857;DHT22;43683;48.650;9.290;2022-11-09T13:53:55;14.90;88.10
57857;DHT22;43683;48.650;9.290;2022-11-09T13:56:40;14.70;88.70
57857;DHT22;43683;48.650;9.290;2022-11-09T14:01:47;14.50;89.50
57857;DHT22;43683;48.650;9.290;2022-11-09T14:06:46;14.40;89.70
57857;DHT22;43683;48.650;9.290;2022-11-09T14:09:16;14.40;89.70
57857;DHT22;43683;48.650;9.290;2022-11-09T14:12:07;14.40;90.00
57857;DHT22;43683;48.650;9.290;2022-11-09T14:15:03;14.40;90.00
57857;DHT22;43683;48.650;9.290;2022-11-09T14:20:40;14.30;90.20
57857;DHT22;43683;48.650;9.290;2022-11-09T14:23:18;14.20;90.30
57857;DHT22;43683;48.650;9.290;2022-11-09T14:25:45;14.20;90.40
57857;DHT22;43683;48.650;9.290;2022-11-09T14:28:29;14.10;90.40
57857;DHT22;43683;48.650;9.290;2022-11-09T14:30:56;14.10;90.40
57857;DHT22;43683;48.650;9.290;2022-11-09T14:33:27;14.10;90.40
57857;DHT22;43683;48.650;9.290;2022-11-09T14:35:57;14.10;90.40
57857;DHT22;43683;48.650;9.290;2022-11-09T14:38:35;14.00;90.50
57857;DHT22;43683;48.650;9.290;2022-11-09T14:41:18;13.90;90.70
57857;DHT22;43683;48.650;9.290;2022-11-09T14:43:44;13.90;90.80
57857;DHT22;43683;48.650;9.290;2022-11-09T14:46:20;13.80;90.90
57857;DHT22;43683;48.650;9.290;2022-11-09T14:48:55;13.70;91.10
57857;DHT22;43683;48.650;9.290;2022-11-09T14:51:26;13.70;91.20
57857;DHT22;43683;48.650;9.290;2022-11-09T14:53:54;13.60;91.30
57857;DHT22;43683;48.650;9.290;2022-11-09T14:56:20;13.50;91.50
57857;DHT22;43683;48.650;9.290;2022-11-09T14:58:46;13.50;91.60
57857;DHT22;43683;48.650;9.290;2022-11-09T15:03:45;13.30;91.70
57857;DHT22;43683;48.650;9.290;2022-11-09T15:06:29;13.30;91.70
57857;DHT22;43683;48.650;9.290;2022-11-09T15:08:59;13.20;91.70
57857;DHT22;43683;48.650;9.290;2022-11-09T15:11:36;13.10;91.80
57857;DHT22;43683;48.650;9.290;2022-11-09T15:14:32;13.10;91.90
57857;DHT22;43683;48.650;9.290;2022-11-09T15:19:57;13.00;92.00
57857;DHT22;43683;48.650;9.290;2022-11-09T15:22:51;12.90;92.10
57857;DHT22;43683;48.650;9.290;2022-11-09T15:27:58;12.80;92.20
57857;DHT22;43683;48.650;9.290;2022-11-09T15:30:28;12.80;92.20
57857;DHT22;43683;48.650;9.290;2022-11-09T15:32:54;12.70;92.20
57857;DHT22;43683;48.650;9.290;2022-11-09T15:35:19;12.70;92.30
57857;DHT22;43683;48.650;9.290;2022-11-09T15:37:50;12.70;92.30
57857;DHT22;43683;48.650;9.290;2022-11-09T15:40:21;12.70;92.40
57857;DHT22;43683;48.650;9.290;2022-11-09T15:42:46;12.60;92.40
57857;DHT22;43683;48.650;9.290;2022-11-09T15:45:14;12.60;92.40
57857;DHT22;43683;48.650;9.290;2022-11-09T15:47:40;12.60;92.40
57857;DHT22;43683;48.650;9.290;2022-11-09T15:50:19;12.50;92.50
57857;DHT22;43683;48.650;9.290;2022-11-09T15:52:45;12.50;92.50
57857;DHT22;43683;48.650;9.290;2022-11-09T15:55:15;12.50;92.50
57857;DHT22;43683;48.650;9.290;2022-11-09T15:57:42;12.40;92.60
57857;DHT22;43683;48.650;9.290;2022-11-09T16:00:12;12.40;92.60
57857;DHT22;43683;48.650;9.290;2022-11-09T16:02:38;12.40;92.70
57857;DHT22;43683;48.650;9.290;2022-11-09T16:05:04;12.40;92.70
57857;DHT22;43683;48.650;9.290;2022-11-09T16:07:30;12.30;92.80
57857;DHT22;43683;48.650;9.290;2022-11-09T16:09:56;12.30;92.80
57857;DHT22;43683;48.650;9.290;2022-11-09T16:12:21;12.30;92.90
57857;DHT22;43683;48.650;9.290;2022-11-09T16:14:47;12.20;92.90
57857;DHT22;43683;48.650;9.290;2022-11-09T16:17:12;12.30;92.90
57857;DHT22;43683;48.650;9.290;2022-11-09T16:19:38;12.20;92.90
57857;DHT22;43683;48.650;9.290;2022-11-09T16:22:04;12.20;93.30
57857;DHT22;43683;48.650;9.290;2022-11-09T16:24:31;12.20;93.00
57857;DHT22;43683;48.650;9.290;2022-11-09T16:26:57;12.20;93.00
57857;DHT22;43683;48.650;9.290;2022-11-09T16:29:25;12.20;93.00
57857;DHT22;43683;48.650;9.290;2022-11-09T16:31:51;12.20;93.00
57857;DHT22;43683;48.650;9.290;2022-11-09T16:34:17;12.30;93.00
57857;DHT22;43683;48.650;9.290;2022-11-09T16:36:42;12.30;93.00
57857;DHT22;43683;48.650;9.290;2022-11-09T16:39:09;12.30;93.00
57857;DHT22;43683;48.650;9.290;2022-11-09T16:41:39;12.30;93.00
57857;DHT22;43683;48.650;9.290;2022-11-09T16:44:05;12.30;93.00
57857;DHT22;43683;48.650;9.290;2022-11-09T16:46:31;12.20;93.00
57857;DHT22;43683;48.650;9.290;2022-11-09T16:49:00;12.30;93.10
57857;DHT22;43683;48.650;9.290;2022-11-09T16:51:25;12.20;93.10
57857;DHT22;43683;48.650;9.290;2022-11-09T16:53:51;12.20;93.10
57857;DHT22;43683;48.650;9.290;2022-11-09T16:56:17;12.20;93.10
57857;DHT22;43683;48.650;9.290;2022-11-09T16:58:42;12.20;93.20
57857;DHT22;43683;48.650;9.290;2022-11-09T17:01:09;12.20;93.20
57857;DHT22;43683;48.650;9.290;2022-11-09T17:03:35;12.20;93.20
57857;DHT22;43683;48.650;9.290;2022-11-09T17:06:01;12.20;93.20
57857;DHT22;43683;48.650;9.290;2022-11-09T17:08:27;12.20;93.20